»·PEaware :: VRD255 KLAS-KSAN

VRD255 :: KLAS-KSAN

FLIGHT INFORMATION

Flight Status: Arrived
Operator:
Virgin America
More flights by this operator :: More flights under this callsign
Pilot: James D. (13710)
Aircraft: AIRBUS A320
(A320)
More flights by this aircraft type
Origin: KLAS McCarran Intl
United States
Destination: KSAN San Diego Intl-Lindbergh
United States
More flights between these airports :: More routes between these airports
Route: +BOACH8 LVELL LUCKI1
File this flight plan on PilotEdge
Remarks:
Altitude:
(Current/Filed)
22,000ft
Speed:
(Current/Filed)
480kts
Departed: 04-Dec-17 01:52 PM
Arrived: 04-Dec-17 02:36 PM
Distance/Time
Traveled:
225nm/0:44
Distance/Time
To Go:
Arrived

Flight Plot

Page will automatically refresh every two minutes.

Flight plan parsing failed; only flown route is shown


Map Options




Map Legend


Flown Route
Filed Route
Departure Airport
Arrival Airport
Navaid (VOR, NDB)
Fix

Horizontal Profiles

Position Reports

Time Latitude Longitude Heading Altitude Ground
Speed
04-Dec-17 13:31 36.085259 -115.139418 0 2120ft 0kts
04-Dec-17 13:32 36.085258 -115.139418 0 2120ft 0kts
04-Dec-17 13:33 36.085258 -115.139418 0 2120ft 0kts
04-Dec-17 13:34 36.085258 -115.139418 0 2120ft 0kts
04-Dec-17 13:35 36.085258 -115.139418 0 2120ft 0kts
04-Dec-17 13:36 36.085258 -115.139418 0 2120ft 0kts
04-Dec-17 13:37 36.085258 -115.139418 0 2120ft 0kts
04-Dec-17 13:38 36.085258 -115.139418 0 2120ft 0kts
04-Dec-17 13:39 36.085258 -115.139418 0 2120ft 0kts
04-Dec-17 13:40 36.085258 -115.139418 0 2120ft 0kts
04-Dec-17 13:41 36.085258 -115.139418 0 2120ft 0kts
04-Dec-17 13:42 36.085258 -115.139418 0 2120ft 0kts
04-Dec-17 13:43 36.085258 -115.139418 0 2120ft 0kts
04-Dec-17 13:44 36.085200 -115.139419 0 2120ft 2kts
04-Dec-17 13:45 36.084677 -115.139645 66 2120ft 2kts
04-Dec-17 13:46 36.084648 -115.139883 91 2120ft 0kts
04-Dec-17 13:47 36.084648 -115.139883 91 2120ft 0kts
04-Dec-17 13:48 36.084648 -115.139883 91 2120ft 0kts
04-Dec-17 13:49 36.084648 -115.139883 91 2120ft 0kts
04-Dec-17 13:50 36.083525 -115.140238 213 2120ft 14kts
04-Dec-17 13:51 36.079493 -115.141581 181 2120ft 0kts
04-Dec-17 13:52 36.079493 -115.141581 181 2120ft 0kts
04-Dec-17 13:53 36.079402 -115.141583 181 2120ft 4kts
04-Dec-17 13:54 36.077585 -115.138296 91 2120ft 19kts
04-Dec-17 13:55 36.077554 -115.130525 88 2120ft 25kts
04-Dec-17 13:56 36.076515 -115.126233 229 2120ft 10kts
04-Dec-17 13:57 36.076259 -115.155212 273 2664ft 177kts
04-Dec-17 13:58 36.076303 -115.221754 272 6017ft 226kts
04-Dec-17 13:59 36.023262 -115.278497 203 9105ft 304kts
04-Dec-17 14:00 35.937749 -115.306189 188 11831ft 357kts
04-Dec-17 14:01 35.832458 -115.312598 179 14074ft 402kts
04-Dec-17 14:02 35.720871 -115.299633 181 16423ft 421kts
04-Dec-17 14:03 35.603198 -115.297734 189 18640ft 429kts
04-Dec-17 14:04 35.482876 -115.302479 190 20648ft 441kts
04-Dec-17 14:05 35.374944 -115.306696 190 22181ft 443kts
04-Dec-17 14:06 35.273041 -115.310873 189 22121ft 475kts
04-Dec-17 14:07 35.141309 -115.315907 189 22130ft 475kts
04-Dec-17 14:08 35.010624 -115.321002 189 22131ft 474kts
04-Dec-17 14:09 34.885598 -115.325883 189 22128ft 473kts
04-Dec-17 14:10 34.771597 -115.336009 203 22130ft 459kts
04-Dec-17 14:11 34.657130 -115.385149 208 22115ft 442kts
04-Dec-17 14:12 34.541719 -115.435665 208 22198ft 450kts
04-Dec-17 14:13 34.424837 -115.486538 208 22239ft 448kts
04-Dec-17 14:14 34.310007 -115.541355 218 22237ft 437kts
04-Dec-17 14:15 34.206372 -115.615778 214 22237ft 440kts
04-Dec-17 14:16 34.095436 -115.669169 210 22238ft 445kts
04-Dec-17 14:17 34.006737 -115.710897 210 22224ft 433kts
04-Dec-17 14:18 33.900253 -115.761310 210 22236ft 443kts
04-Dec-17 14:19 33.797761 -115.811712 210 22235ft 442kts
04-Dec-17 14:20 33.684383 -115.865490 209 22095ft 443kts
04-Dec-17 14:21 33.569816 -115.918960 209 22099ft 443kts
04-Dec-17 14:22 33.479878 -116.005307 241 22098ft 408kts
04-Dec-17 14:23 33.417518 -116.112724 241 22093ft 408kts
04-Dec-17 14:24 33.354581 -116.220578 242 21503ft 374kts
04-Dec-17 14:25 33.270288 -116.289688 215 19684ft 375kts
04-Dec-17 14:26 33.178572 -116.343122 214 17382ft 363kts
04-Dec-17 14:27 33.089372 -116.395219 213 15164ft 351kts
04-Dec-17 14:28 33.004732 -116.445792 220 13195ft 323kts
04-Dec-17 14:29 32.940893 -116.509405 224 11623ft 296kts
04-Dec-17 14:30 32.879920 -116.570965 223 10226ft 300kts
04-Dec-17 14:31 32.818291 -116.632980 221 9099ft 286kts
04-Dec-17 14:32 32.765894 -116.694611 244 7791ft 290kts
04-Dec-17 14:33 32.726218 -116.778668 241 6315ft 292kts
04-Dec-17 14:34 32.694486 -116.859793 250 5567ft 246kts
04-Dec-17 14:35 32.673539 -116.929942 259 4517ft 220kts
04-Dec-17 14:36 32.685507 -116.992487 287 3645ft 173kts
04-Dec-17 14:37 32.696975 -117.039589 285 2786ft 136kts
04-Dec-17 14:38 32.706859 -117.079875 283 2051ft 132kts
04-Dec-17 14:39 32.716883 -117.121465 284 1246ft 132kts
04-Dec-17 14:40 32.727050 -117.162929 283 427ft 131kts
04-Dec-17 14:41 32.734445 -117.193959 262 22ft 27kts
04-Dec-17 14:42 32.733799 -117.195083 186 22ft 8kts
04-Dec-17 14:43 32.731845 -117.195864 250 21ft 0kts
04-Dec-17 14:44 32.731845 -117.195864 250 21ft 0kts
04-Dec-17 14:45 32.731845 -117.195864 250 21ft 0kts
04-Dec-17 14:46 32.731845 -117.195864 250 21ft 0kts
04-Dec-17 14:47 32.731845 -117.195864 250 21ft 0kts
04-Dec-17 14:48 32.731845 -117.195864 250 21ft 0kts
04-Dec-17 14:49 32.731845 -117.195864 250 21ft 0kts
04-Dec-17 14:50 32.731845 -117.195864 250 21ft 0kts

Navigation Log

Ident Type
Flight plan parsing failed, navigation log unavailable